Merrill, Wisconsin
Current Conditions -  °F | °C
As of 6:15 AM on Monday 26 Jan 2015 (Local Time) from KRRL Reporting Station
Overcast Overcast  
Wind Chill:   Ceiling: 7500
Heat Index: 15°   Visibility: 10mi
Dew Point:   Wind: 7mph
Humidity: 71%   Direction: 180°S
Pressure: 29.83"   Gusts: NA
Location:  45.18°N, 89.69°W
Report Text: KRRL 261215Z AUTO 18006KT 10SM SCT050 BKN075 OVC090 M10/M14 A2983 RMK AO2 T10971140
Loading
Personal Weather Stations






























Interactive Weather Map New forecast layout! Learn more

10-Day Weather Forecast

Advertisements
Track Severe Weather on mobile